createdAt,value
2023-04-21T00:00:26.966Z,27.00
2023-04-21T00:02:55.200Z,27.10
2023-04-21T00:05:23.754Z,27.00
2023-04-21T00:07:52.194Z,27.00
2023-04-21T00:10:20.417Z,27.00
2023-04-21T00:12:48.460Z,27.00
2023-04-21T00:15:16.909Z,27.00
2023-04-21T00:17:45.275Z,27.00
2023-04-21T00:20:13.686Z,27.00
2023-04-21T00:22:42.002Z,27.00
2023-04-21T00:25:10.558Z,27.00
2023-04-21T00:27:38.639Z,27.00
2023-04-21T00:30:07.503Z,27.00
2023-04-21T00:32:38.154Z,27.00
2023-04-21T00:35:06.939Z,27.00
2023-04-21T00:37:35.347Z,27.00
2023-04-21T00:40:05.228Z,27.00
2023-04-21T00:42:33.530Z,27.00
2023-04-21T00:45:02.467Z,27.00
2023-04-21T00:47:32.223Z,27.00
2023-04-21T00:50:01.028Z,27.00
2023-04-21T00:52:29.497Z,27.10
2023-04-21T00:54:58.018Z,27.10
2023-04-21T00:57:27.292Z,27.10
2023-04-21T00:59:56.056Z,27.10
2023-04-21T01:02:25.934Z,27.00
2023-04-21T01:04:54.329Z,27.10
2023-04-21T01:07:22.632Z,27.10
2023-04-21T01:09:52.144Z,27.10
2023-04-21T01:12:20.460Z,27.10
2023-04-21T01:14:48.626Z,27.10
2023-04-21T01:17:17.042Z,27.10
2023-04-21T01:19:47.768Z,27.10
2023-04-21T01:22:16.328Z,27.10
2023-04-21T01:24:47.096Z,27.10
2023-04-21T01:27:17.782Z,27.10
2023-04-21T01:29:48.301Z,27.10
2023-04-21T01:32:26.053Z,27.10
2023-04-21T01:34:55.237Z,27.10
2023-04-21T01:37:28.116Z,27.10
2023-04-21T01:39:58.904Z,27.10
2023-04-21T01:42:29.561Z,27.00
2023-04-21T01:45:00.016Z,27.00
2023-04-21T01:47:28.360Z,27.00
2023-04-21T01:49:56.436Z,27.00
2023-04-21T01:52:24.723Z,26.90
2023-04-21T01:54:55.395Z,26.90
2023-04-21T01:57:23.637Z,26.90
2023-04-21T01:59:53.082Z,26.90
2023-04-21T02:02:21.505Z,26.90
2023-04-21T02:04:49.750Z,26.90
2023-04-21T02:07:18.057Z,26.90
2023-04-21T02:09:46.248Z,26.90
2023-04-21T02:12:16.288Z,26.90
2023-04-21T02:14:44.673Z,26.90
2023-04-21T02:17:13.251Z,26.90
2023-04-21T02:19:41.538Z,26.90
2023-04-21T02:22:09.972Z,26.90
2023-04-21T02:24:38.143Z,26.90
2023-04-21T02:27:06.781Z,26.90
2023-04-21T02:29:35.175Z,26.90
2023-04-21T02:32:14.386Z,26.90
2023-04-21T02:34:50.194Z,26.90
2023-04-21T02:37:18.637Z,26.80
2023-04-21T02:39:46.658Z,26.80
2023-04-21T02:42:14.945Z,26.80
2023-04-21T02:44:43.089Z,26.80
2023-04-21T02:47:11.184Z,26.80
2023-04-21T02:49:43.527Z,26.80
2023-04-21T02:52:13.717Z,26.70
2023-04-21T02:54:42.142Z,26.70
2023-04-21T02:57:10.211Z,26.70
2023-04-21T02:59:38.365Z,26.70
2023-04-21T03:02:06.598Z,26.70
2023-04-21T03:04:39.867Z,26.60
2023-04-21T03:07:13.973Z,26.60
2023-04-21T03:09:42.368Z,26.60
2023-04-21T03:12:10.498Z,26.60
2023-04-21T03:14:38.906Z,26.60
2023-04-21T03:17:07.856Z,26.60
2023-04-21T03:19:36.143Z,26.60
2023-04-21T03:22:04.430Z,26.50
2023-04-21T03:24:32.988Z,26.50
2023-04-21T03:27:01.233Z,26.50
2023-04-21T03:29:29.699Z,26.50
2023-04-21T03:31:58.045Z,26.50
2023-04-21T03:34:26.739Z,26.50
2023-04-21T03:36:55.391Z,26.50
2023-04-21T03:39:23.947Z,26.50
2023-04-21T03:41:53.514Z,26.40
2023-04-21T03:44:22.239Z,26.40
2023-04-21T03:46:52.853Z,26.40
2023-04-21T03:49:21.716Z,26.40
2023-04-21T03:51:50.062Z,26.40
2023-04-21T03:54:18.068Z,26.40
2023-04-21T03:56:46.328Z,26.30
2023-04-21T03:59:14.491Z,26.30
2023-04-21T04:01:42.827Z,26.30
2023-04-21T04:04:11.218Z,26.30
2023-04-21T04:06:39.499Z,26.30
2023-04-21T04:09:07.695Z,26.30
2023-04-21T04:11:36.053Z,26.30
2023-04-21T04:14:04.171Z,26.30
2023-04-21T04:16:34.120Z,26.30
2023-04-21T04:19:02.976Z,26.30
2023-04-21T04:21:31.148Z,26.30
2023-04-21T04:23:59.724Z,26.30
2023-04-21T04:26:27.943Z,26.30
2023-04-21T04:28:56.439Z,26.30
2023-04-21T04:31:24.718Z,26.30
2023-04-21T04:33:55.284Z,26.30
2023-04-21T04:36:25.006Z,26.30
2023-04-21T04:38:53.175Z,26.30
2023-04-21T04:41:21.675Z,26.30
2023-04-21T04:43:49.684Z,26.30
2023-04-21T04:46:18.157Z,26.30
2023-04-21T04:48:46.262Z,26.30
2023-04-21T04:51:14.939Z,26.30
2023-04-21T04:53:43.134Z,26.20
2023-04-21T04:56:11.281Z,26.20
2023-04-21T04:58:39.403Z,26.20
2023-04-21T05:01:18.308Z,26.20
2023-04-21T05:03:47.736Z,26.20
2023-04-21T05:06:16.018Z,26.20
2023-04-21T05:08:44.053Z,26.20
2023-04-21T05:11:12.289Z,26.20
2023-04-21T05:13:40.645Z,26.20
2023-04-21T05:16:09.615Z,26.10
2023-04-21T05:18:38.250Z,26.10
2023-04-21T05:21:06.413Z,26.10
2023-04-21T05:23:34.604Z,26.10
2023-04-21T05:26:04.437Z,26.10
2023-04-21T05:28:33.276Z,26.10
2023-04-21T05:31:01.379Z,26.10
2023-04-21T05:33:29.795Z,26.10
2023-04-21T05:35:57.931Z,26.10
2023-04-21T05:38:26.146Z,26.10
2023-04-21T05:40:57.386Z,26.10
2023-04-21T05:43:25.605Z,26.10
2023-04-21T05:45:53.909Z,26.10
2023-04-21T05:48:22.534Z,26.10
2023-04-21T05:50:50.632Z,26.10
2023-04-21T05:53:18.891Z,26.10
2023-04-21T05:55:47.076Z,26.10
2023-04-21T05:58:15.410Z,26.10
2023-04-21T06:00:43.622Z,26.10
2023-04-21T06:03:11.984Z,26.10
2023-04-21T06:05:40.246Z,26.10
2023-04-21T06:08:08.616Z,26.00
2023-04-21T06:10:36.924Z,26.10
2023-04-21T06:13:05.106Z,26.00
2023-04-21T06:15:33.138Z,26.10
2023-04-21T06:18:01.630Z,26.00
2023-04-21T06:20:30.009Z,26.10
2023-04-21T06:22:58.924Z,26.10
2023-04-21T06:25:27.051Z,26.10
2023-04-21T06:27:56.397Z,26.10
2023-04-21T06:30:24.789Z,26.00
2023-04-21T06:32:53.006Z,26.00
2023-04-21T06:35:21.278Z,26.00
2023-04-21T06:37:49.690Z,26.00
2023-04-21T06:40:17.941Z,26.00
2023-04-21T06:42:46.124Z,26.00
2023-04-21T06:45:14.330Z,26.00
2023-04-21T06:47:42.543Z,26.00
2023-04-21T06:50:11.257Z,26.00
2023-04-21T06:52:39.446Z,26.00
2023-04-21T06:55:08.191Z,26.00
2023-04-21T06:57:36.233Z,26.00
2023-04-21T07:00:05.187Z,26.00
2023-04-21T07:02:33.585Z,26.00
2023-04-21T07:05:01.896Z,26.10
2023-04-21T07:07:30.059Z,26.10
2023-04-21T07:09:58.404Z,26.10
2023-04-21T07:12:26.530Z,26.00
2023-04-21T07:14:54.727Z,26.10
2023-04-21T07:17:22.930Z,26.10
2023-04-21T07:19:51.113Z,26.10
2023-04-21T07:22:19.185Z,26.10
2023-04-21T07:24:49.195Z,26.10
2023-04-21T07:27:17.764Z,26.10
2023-04-21T07:29:46.024Z,26.10
2023-04-21T07:32:14.500Z,26.10
2023-04-21T07:34:42.601Z,26.10
2023-04-21T07:37:10.807Z,26.10
2023-04-21T07:39:39.030Z,26.10
2023-04-21T07:42:07.288Z,26.10
2023-04-21T07:44:35.756Z,26.10
2023-04-21T07:47:04.126Z,26.10
2023-04-21T07:49:33.233Z,26.10
2023-04-21T07:52:01.476Z,26.20
2023-04-21T07:54:31.821Z,26.20
2023-04-21T07:57:00.185Z,26.20
2023-04-21T07:59:28.239Z,26.30
2023-04-21T08:01:56.557Z,26.30
2023-04-21T08:04:25.155Z,26.40
2023-04-21T08:06:54.157Z,26.40
2023-04-21T08:09:22.745Z,26.40
2023-04-21T08:11:51.128Z,26.40
2023-04-21T08:14:19.645Z,26.50
2023-04-21T08:16:48.552Z,26.50
2023-04-21T08:19:16.821Z,26.50
2023-04-21T08:21:45.087Z,26.60
2023-04-21T08:24:13.316Z,26.70
2023-04-21T08:26:41.487Z,26.70
2023-04-21T08:29:09.566Z,26.70
2023-04-21T08:31:38.027Z,26.80
2023-04-21T08:34:06.172Z,26.90
2023-04-21T08:36:34.581Z,26.90
2023-04-21T08:39:02.886Z,26.90
2023-04-21T08:41:31.105Z,27.00
2023-04-21T08:43:59.394Z,27.10
2023-04-21T08:46:28.881Z,27.10
2023-04-21T08:48:59.603Z,27.20
2023-04-21T08:51:28.924Z,27.20
2023-04-21T08:53:57.320Z,27.30
2023-04-21T08:56:28.444Z,27.30
2023-04-21T08:58:57.119Z,27.30
2023-04-21T09:01:25.224Z,27.30
2023-04-21T09:03:53.691Z,27.30
2023-04-21T09:06:22.277Z,27.30
2023-04-21T09:08:55.306Z,27.30
2023-04-21T09:11:23.786Z,27.40
2023-04-21T09:13:51.852Z,27.40
2023-04-21T09:16:22.185Z,27.40
2023-04-21T09:18:51.231Z,27.40
2023-04-21T09:21:20.864Z,27.40
2023-04-21T09:23:51.333Z,27.40
2023-04-21T09:26:20.621Z,27.50
2023-04-21T09:28:50.105Z,27.50
2023-04-21T09:31:20.374Z,27.50
2023-04-21T09:33:59.580Z,27.50
2023-04-21T09:36:31.459Z,27.50
2023-04-21T09:41:33.353Z,27.60
2023-04-21T09:44:01.919Z,27.60
2023-04-21T09:46:33.510Z,27.70
2023-04-21T09:49:02.720Z,27.80
2023-04-21T09:52:02.270Z,27.80
2023-04-21T09:56:56.368Z,27.80
2023-04-21T09:59:30.219Z,27.90
2023-04-21T10:02:00.421Z,27.90
2023-04-21T10:04:31.976Z,27.90
2023-04-21T10:07:04.302Z,27.90
2023-04-21T10:09:58.858Z,27.90
2023-04-21T10:12:28.118Z,28.00
2023-04-21T10:14:57.212Z,28.00
2023-04-21T10:17:27.288Z,28.10
2023-04-21T10:19:57.860Z,28.10
2023-04-21T10:22:34.362Z,28.20
2023-04-21T10:25:04.858Z,28.40
2023-04-21T10:27:38.433Z,28.40
2023-04-21T10:30:24.005Z,28.40
2023-04-21T10:33:04.168Z,28.50
2023-04-21T10:36:01.070Z,28.50
2023-04-21T10:38:36.587Z,28.60
2023-04-21T10:41:26.498Z,28.60
2023-04-21T10:43:54.962Z,28.70
2023-04-21T10:46:53.285Z,28.80
2023-04-21T10:49:31.610Z,28.80
2023-04-21T10:52:00.160Z,28.80
2023-04-21T10:54:42.543Z,28.80
2023-04-21T10:57:11.379Z,28.90
2023-04-21T10:59:40.520Z,29.00
2023-04-21T11:02:13.706Z,28.90
2023-04-21T11:04:42.637Z,28.90
2023-04-21T11:07:16.496Z,28.90
2023-04-21T11:09:46.245Z,29.00
2023-04-21T11:12:18.952Z,28.90
2023-04-21T11:17:35.764Z,28.80
2023-04-21T11:20:04.811Z,28.80
2023-04-21T11:22:33.600Z,28.80
2023-04-21T11:25:02.043Z,28.80
2023-04-21T11:27:30.932Z,28.70
2023-04-21T11:29:59.195Z,28.80
2023-04-21T11:32:27.431Z,28.90
2023-04-21T11:34:55.780Z,28.90
2023-04-21T11:37:28.304Z,29.00
2023-04-21T11:40:02.533Z,29.00
2023-04-21T11:42:31.925Z,29.20
2023-04-21T11:45:00.286Z,29.20
2023-04-21T11:47:29.388Z,29.10
2023-04-21T11:49:59.612Z,29.10
2023-04-21T11:52:33.719Z,29.20
2023-04-21T11:55:15.768Z,29.30
2023-04-21T11:57:43.832Z,29.30
2023-04-21T12:00:13.709Z,29.30
2023-04-21T12:02:43.581Z,29.30
2023-04-21T12:05:13.973Z,29.30
2023-04-21T12:07:47.111Z,29.30
2023-04-21T12:10:20.603Z,29.40
2023-04-21T12:12:49.267Z,29.40
2023-04-21T12:15:22.101Z,29.30
2023-04-21T12:17:52.308Z,29.30
2023-04-21T12:20:23.863Z,29.20
2023-04-21T12:22:52.241Z,29.20
2023-04-21T12:25:20.423Z,29.30
2023-04-21T12:27:52.897Z,29.30
2023-04-21T12:30:22.088Z,29.30
2023-04-21T12:32:50.212Z,29.20
2023-04-21T12:35:18.567Z,29.20
2023-04-21T12:37:46.701Z,29.20
2023-04-21T12:40:15.105Z,29.10
2023-04-21T12:42:43.184Z,29.10
2023-04-21T12:45:11.843Z,29.00
2023-04-21T12:47:44.746Z,29.10
2023-04-21T12:50:14.704Z,29.00
2023-04-21T12:52:42.899Z,29.10
2023-04-21T12:55:11.200Z,29.10
2023-04-21T12:57:39.417Z,29.10
2023-04-21T13:00:08.333Z,29.10
2023-04-21T13:02:36.584Z,29.10
2023-04-21T13:05:05.205Z,29.10
2023-04-21T13:07:35.049Z,29.10
2023-04-21T13:10:05.457Z,29.20
2023-04-21T13:12:34.090Z,29.30
2023-04-21T13:15:02.336Z,29.30
2023-04-21T13:17:31.195Z,29.40
2023-04-21T13:19:59.283Z,29.60
2023-04-21T13:22:27.658Z,29.50
2023-04-21T13:24:55.771Z,29.60
2023-04-21T13:27:24.153Z,29.60
2023-04-21T13:29:52.439Z,29.50
2023-04-21T13:32:20.783Z,29.60
2023-04-21T13:34:49.012Z,29.60
2023-04-21T13:37:17.532Z,29.60
2023-04-21T13:39:45.979Z,29.60
2023-04-21T13:42:14.127Z,29.50
2023-04-21T13:44:42.568Z,29.50
2023-04-21T13:47:11.075Z,29.40
2023-04-21T13:49:39.225Z,29.30
2023-04-21T13:52:07.507Z,29.30
2023-04-21T13:54:35.788Z,29.30
2023-04-21T13:57:03.938Z,29.30
2023-04-21T13:59:32.486Z,29.30
2023-04-21T14:02:01.268Z,29.40
2023-04-21T14:04:29.628Z,29.30
2023-04-21T14:06:58.086Z,29.40
2023-04-21T14:09:26.552Z,29.40
2023-04-21T14:11:54.960Z,29.30
2023-04-21T14:14:37.395Z,29.30
2023-04-21T14:17:07.098Z,29.30
2023-04-21T14:19:36.010Z,29.30
2023-04-21T14:22:04.657Z,29.20
2023-04-21T14:24:33.058Z,29.20
2023-04-21T14:27:01.278Z,29.10
2023-04-21T14:29:29.526Z,29.10
2023-04-21T14:31:57.961Z,29.20
2023-04-21T14:34:26.667Z,29.10
2023-04-21T14:36:55.094Z,29.20
2023-04-21T14:39:23.566Z,29.20
2023-04-21T14:41:51.669Z,29.20
2023-04-21T14:44:20.005Z,29.20
2023-04-21T14:47:01.058Z,29.30
2023-04-21T14:49:37.347Z,29.30
2023-04-21T14:52:05.893Z,29.30
2023-04-21T14:54:34.136Z,29.30
2023-04-21T14:57:14.781Z,29.40
2023-04-21T14:59:48.283Z,29.60
2023-04-21T15:02:16.876Z,29.70
2023-04-21T15:04:45.261Z,30.00
2023-04-21T15:07:13.985Z,30.10
2023-04-21T15:09:42.260Z,30.30
2023-04-21T15:12:10.769Z,30.40
2023-04-21T15:14:40.449Z,30.30
2023-04-21T15:17:09.107Z,30.30
2023-04-21T15:19:37.676Z,30.30
2023-04-21T15:22:06.169Z,30.40
2023-04-21T15:24:34.541Z,30.20
2023-04-21T15:27:06.198Z,30.10
2023-04-21T15:29:34.620Z,30.00
2023-04-21T15:32:03.635Z,29.90
2023-04-21T15:34:31.808Z,29.90
2023-04-21T15:36:59.928Z,29.80
2023-04-21T15:39:28.242Z,29.80
2023-04-21T15:41:56.525Z,29.90
2023-04-21T15:44:24.955Z,29.90
2023-04-21T15:46:53.667Z,29.80
2023-04-21T15:49:23.706Z,29.90
2023-04-21T15:51:54.182Z,29.90
2023-04-21T15:54:22.573Z,29.80
2023-04-21T15:56:51.188Z,29.90
2023-04-21T15:59:19.396Z,30.00
2023-04-21T16:01:47.735Z,30.10
2023-04-21T16:05:52.474Z,30.00
2023-04-21T16:08:20.900Z,29.90
2023-04-21T16:10:49.228Z,30.00
2023-04-21T16:13:18.236Z,29.90
2023-04-21T16:15:46.552Z,29.90
2023-04-21T16:18:14.935Z,29.80
2023-04-21T16:20:43.096Z,29.80
2023-04-21T16:23:11.361Z,29.70
2023-04-21T16:25:40.123Z,29.70
2023-04-21T16:28:08.332Z,29.80
2023-04-21T16:30:37.014Z,29.70
2023-04-21T16:33:05.371Z,29.80
2023-04-21T16:35:33.728Z,29.80
2023-04-21T16:38:01.999Z,29.70
2023-04-21T16:40:30.324Z,29.70
2023-04-21T16:42:58.708Z,29.60
2023-04-21T16:45:28.290Z,29.60
2023-04-21T16:47:56.981Z,29.60
2023-04-21T16:50:25.599Z,29.60
2023-04-21T16:52:54.068Z,29.60
2023-04-21T16:55:22.649Z,29.90
2023-04-21T16:57:50.815Z,30.20
2023-04-21T17:00:19.529Z,30.50
2023-04-21T17:02:47.803Z,30.70
2023-04-21T17:05:16.624Z,30.80
2023-04-21T17:07:44.829Z,30.80
2023-04-21T17:10:13.034Z,30.70
2023-04-21T17:12:41.348Z,30.80
2023-04-21T17:15:10.074Z,30.60
2023-04-21T17:17:44.679Z,30.50
2023-04-21T17:20:14.668Z,30.20
2023-04-21T17:22:43.485Z,30.10
2023-04-21T17:25:11.769Z,30.00
2023-04-21T17:27:40.188Z,29.90
2023-04-21T17:30:09.883Z,29.80
2023-04-21T17:32:38.402Z,29.70
2023-04-21T17:35:07.033Z,29.70
2023-04-21T17:37:35.494Z,29.50
2023-04-21T17:40:03.598Z,29.50
2023-04-21T17:42:31.781Z,29.50
2023-04-21T17:44:59.966Z,29.40
2023-04-21T17:47:28.258Z,29.40
2023-04-21T17:49:56.336Z,29.30
2023-04-21T17:52:24.686Z,29.20
2023-04-21T17:54:52.789Z,29.20
2023-04-21T17:57:21.206Z,29.30
2023-04-21T17:59:49.419Z,29.40
2023-04-21T18:02:17.922Z,29.50
2023-04-21T18:04:46.208Z,29.60
2023-04-21T18:07:15.167Z,29.50
2023-04-21T18:09:43.407Z,29.40
2023-04-21T18:12:11.637Z,29.30
2023-04-21T18:14:40.396Z,29.20
2023-04-21T18:17:08.692Z,29.20
2023-04-21T18:19:36.957Z,29.10
2023-04-21T18:22:05.211Z,29.00
2023-04-21T18:24:33.357Z,28.90
2023-04-21T18:27:01.500Z,28.90
2023-04-21T18:29:32.207Z,28.80
2023-04-21T18:32:01.377Z,28.70
2023-04-21T18:34:29.621Z,28.60
2023-04-21T18:36:57.821Z,28.60
2023-04-21T18:39:26.759Z,28.60
2023-04-21T18:41:55.112Z,28.50
2023-04-21T18:44:23.352Z,28.50
2023-04-21T18:46:51.612Z,28.40
2023-04-21T18:49:20.091Z,28.40
2023-04-21T18:51:48.286Z,28.40
2023-04-21T18:54:16.501Z,28.30
2023-04-21T18:56:44.932Z,28.40
2023-04-21T18:59:12.979Z,28.30
2023-04-21T19:01:41.470Z,28.30
2023-04-21T19:04:10.036Z,28.30
2023-04-21T19:06:38.574Z,28.20
2023-04-21T19:09:06.849Z,28.20
2023-04-21T19:11:35.768Z,28.20
2023-04-21T19:14:04.325Z,28.10
2023-04-21T19:16:32.781Z,28.10
2023-04-21T19:19:01.042Z,28.10
2023-04-21T19:21:29.231Z,28.10
2023-04-21T19:23:58.112Z,28.10
2023-04-21T19:26:26.852Z,28.10
2023-04-21T19:28:55.175Z,28.10
2023-04-21T19:31:23.450Z,28.10
2023-04-21T19:33:52.183Z,28.10
2023-04-21T19:36:20.370Z,28.10
2023-04-21T19:38:48.670Z,28.00
2023-04-21T19:41:17.090Z,28.00
2023-04-21T19:46:33.458Z,28.00
2023-04-21T19:49:01.831Z,28.00
2023-04-21T19:51:29.944Z,28.00
2023-04-21T19:54:10.035Z,28.00
2023-04-21T19:56:40.091Z,28.00
2023-04-21T19:59:08.461Z,28.00
2023-04-21T20:01:36.888Z,28.00
2023-04-21T20:04:05.960Z,28.10
2023-04-21T20:06:35.228Z,28.10
2023-04-21T20:09:03.461Z,28.10
2023-04-21T20:11:32.558Z,28.10
2023-04-21T20:14:00.882Z,28.10
2023-04-21T20:16:29.664Z,28.10
2023-04-21T20:18:57.898Z,28.10
2023-04-21T20:21:26.428Z,28.10
2023-04-21T20:23:54.579Z,28.00
2023-04-21T20:26:23.521Z,28.10
2023-04-21T20:28:51.786Z,28.10
2023-04-21T20:31:20.038Z,28.10
2023-04-21T20:33:48.257Z,28.00
2023-04-21T20:36:16.724Z,28.00
2023-04-21T20:38:44.871Z,28.00
2023-04-21T20:41:14.312Z,28.00
2023-04-21T20:43:42.556Z,28.00
2023-04-21T20:46:14.126Z,28.00
2023-04-21T20:48:44.110Z,28.00
2023-04-21T20:51:12.206Z,28.00
2023-04-21T20:53:40.430Z,28.00
2023-04-21T20:56:08.890Z,28.00
2023-04-21T20:58:37.757Z,27.90
2023-04-21T21:01:05.910Z,27.90
2023-04-21T21:03:36.727Z,27.90
2023-04-21T21:06:05.257Z,27.90
2023-04-21T21:08:34.482Z,27.90
2023-04-21T21:11:02.862Z,27.90
2023-04-21T21:13:31.138Z,27.90
2023-04-21T21:15:59.396Z,27.90
2023-04-21T21:18:27.702Z,27.90
2023-04-21T21:20:56.087Z,27.80
2023-04-21T21:23:24.232Z,27.90
2023-04-21T21:25:52.400Z,27.80
2023-04-21T21:28:20.740Z,27.80
2023-04-21T21:30:52.690Z,27.80
2023-04-21T21:33:20.850Z,27.80
2023-04-21T21:35:49.349Z,27.80
2023-04-21T21:38:17.819Z,27.90
2023-04-21T21:40:46.155Z,27.90
2023-04-21T21:43:14.335Z,27.90
2023-04-21T21:45:43.030Z,27.90
2023-04-21T21:48:11.364Z,27.90
2023-04-21T21:50:39.745Z,27.90
2023-04-21T21:53:08.049Z,27.90
2023-04-21T21:55:36.430Z,27.80
2023-04-21T21:58:04.758Z,27.80
2023-04-21T22:00:33.028Z,27.80
2023-04-21T22:03:01.409Z,27.80
2023-04-21T22:05:30.071Z,27.80
2023-04-21T22:07:58.160Z,27.70
2023-04-21T22:10:26.409Z,27.70
2023-04-21T22:12:54.848Z,27.70
2023-04-21T22:15:23.173Z,27.70
2023-04-21T22:17:51.560Z,27.70
2023-04-21T22:20:20.291Z,27.70
2023-04-21T22:22:48.538Z,27.70
2023-04-21T22:25:16.869Z,27.70
2023-04-21T22:27:45.209Z,27.70
2023-04-21T22:30:13.476Z,27.70
2023-04-21T22:32:41.890Z,27.70
2023-04-21T22:35:10.328Z,27.70
2023-04-21T22:37:38.405Z,27.70
2023-04-21T22:40:07.393Z,27.70
2023-04-21T22:42:35.508Z,27.70
2023-04-21T22:45:04.020Z,27.70
2023-04-21T22:47:33.462Z,27.70
2023-04-21T22:50:01.708Z,27.70
2023-04-21T22:52:30.000Z,27.80
2023-04-21T22:54:58.377Z,27.80
2023-04-21T22:57:26.556Z,27.70
2023-04-21T22:59:54.907Z,27.70
2023-04-21T23:02:23.397Z,27.70
2023-04-21T23:04:51.757Z,27.70
2023-04-21T23:07:19.816Z,27.70
2023-04-21T23:09:48.212Z,27.70
2023-04-21T23:12:16.332Z,27.80
2023-04-21T23:14:44.589Z,27.70
2023-04-21T23:17:12.874Z,27.70
2023-04-21T23:19:41.317Z,27.70
2023-04-21T23:22:10.020Z,27.80
2023-04-21T23:24:38.317Z,27.80
2023-04-21T23:27:06.451Z,27.80
2023-04-21T23:29:34.718Z,27.70
2023-04-21T23:32:03.047Z,27.80
2023-04-21T23:34:31.497Z,27.70
2023-04-21T23:36:59.651Z,27.80
2023-04-21T23:40:08.212Z,27.70
2023-04-21T23:42:36.714Z,27.70
2023-04-21T23:45:05.181Z,27.70
2023-04-21T23:47:34.008Z,27.70
2023-04-21T23:50:02.152Z,27.70
2023-04-21T23:52:30.483Z,27.70
2023-04-21T23:54:58.957Z,27.70
2023-04-21T23:57:27.209Z,27.70
2023-04-21T23:59:55.344Z,27.70
